Airfield :
LOGIN :

Register | Disclaimer

   EN    FR    IT 

 










Legend :    VFR   Marginal VFR   IFR   Intensive IFR   Very Intensive IFR
Visi :
Ceiling :
>= 8 km
>= 3000ft
5 to 8 km
1000 to 3000 ft
1500m to 5 km
500 to 1000 ft
800 to 1500m
200 to 500 ft
< 800m
< 200 ft
Symbols :   Thunderstorms  Fog  Heavy snow  Heavy precipitations  Wind > 20 kt
SIGMETs :     Misc.  Thunderstorms  Icing  Turbulence  Mountain Waves  Volcanic Ashes






- Airport Elevation : 194 ft


EBCV - Chièvres

CURRENT METAR :
  • 192355Z AUTO 32009KT 9999 FEW024/// SCT033/// BKN041/// 05/02 Q1019 BLU

EXPIRED METARs :
  • 192325Z AUTO 31008KT 9999 FEW042/// SCT140/// 05/02 Q1019 BLU
  • 192255Z AUTO 30006KT 9999 FEW015/// 05/02 Q1019 BLU
  • 192225Z AUTO 32007KT 9999 -RA FEW031/// SCT036/// 05/03 Q1019 BLU
  • 192155Z AUTO 32009KT 9999 FEW022/// SCT034/// BKN050/// 05/03 Q1018 BLU
  • 192125Z AUTO 29005KT 9999 FEW014/// SCT130/// BKN150/// 04/02 Q1018 BLU
  • 192055Z AUTO 33014G26KT 9999 -RA FEW025/// SCT031/// 06/02 Q1018 BLU
  • 192025Z AUTO 30008KT 9999 FEW029/// 06/02 Q1018 BLU
  • 191955Z AUTO 32013KT 9999 FEW030/// 06/02 Q1017 BLU
  • 191925Z AUTO 31007KT 9999 FEW030/// 06/03 Q1017 BLU

TAF TAF EBCV
Valid from the 19 at 19:00 until the 20 at 07:00 UTC


191541Z 1919/2007 34015G25KT 9999 FEW015 SCT030
TEMPO 1919/2007 34020G30KT 6000 -SHRA SCT015 BKN030 BY EBWM



MET'MAP, your aeronautical weather chart ! - Copyright ORBIFLY December 2007 - Disclaimer

ORBIFLY MET'MAP TEAM :

Programming & Development : Alexandra Zaïnal
Original concept : Baudouin d'Aumeries
Technical & hardware support : Manuel Goepfert
Assistance : Marc-Olivier Méhu




SOURCES & CREDITS :

   NOAA